Eads, CO (81036)

6:14 AM MDT on April 30, 2017 (GMT -0600)
Kit Carson | | Change Station
Active Advisory: Winter Storm Warning

Elev 4301 ft 38.77 °N, 102.79 °W | Updated 2 seconds ago

Snow
Snow
35.1 °F
Feels Like 22 °F
N
31.5
Wind Variable Wind from North
Gusts 33.0 mph

Today
High -- | Low -- °F
--% Chance of Precip.
Yesterday
High -- | Low -- °F
Precip. -- in
Pressure 29.84 in
Visibility 1.2 miles
Clouds Overcast 1400 ft
Windchill 22 °F
Dew Point 24 °F
Humidity 64%
Rainfall 0.00 in
Snow Depth Not available.
5:54 AM 7:42 PM
Waxing Crescent, 22% visible
SPECI KLAA 301210Z AUTO 36021G40KT 1 1/4SM -SN OVC014 01/M02 A2984 RMK AO2 PK WND 35040/1201 P0000 T00111022
Pressure 29.84 in
Visibility 1.2 miles
Clouds Overcast 1400 ft
Windchill 22 °F
Dew Point 24 °F
Humidity 64%
Rainfall 0.00 in
Snow Depth Not available.
5:54 AM 7:42 PM
Waxing Crescent, 22% visible
SPECI KLAA 301210Z AUTO 36021G40KT 1 1/4SM -SN OVC014 01/M02 A2984 RMK AO2 PK WND 35040/1201 P0000 T00111022

Get Your Daily Forecast Email!

Thanks for signing up!

Be on the lookout for a verification email in your inbox.

You'll start receiving severe weather alerts in your inbox..

×

10-Day Weather Forecast

Almanac

Astronomy

Apr. 30, 2017 Rise Set
Actual Time
Civil Twilight
Nautical Twilight
Astronomical Twilight
Moon
Length of Visible Light
Length of Day
Tomorrow will be .
, % of the Moon is Illuminated

Today's Extremes

State Highs State Lows

Community

WunderPhotos

WunderBlog® & News

Nearby

Air Quality

  Air Quality AQ Index Pollutant
Not available.

Snow Depth

Station Depth Elevation

Earthquake Activity

City Distance Mag. Time & Date
Minimum magnitude displayed is 2.5.

Coastal Water Temperatures

Place Temperature

Stations

Nearby Weather Stations

Station Location Temp. Windchill Dew Point Humidity Wind Precip. Elev Updated Type
                   

Watches & Warnings

Winter Storm Warning
Issued: 3:49 AM MDT Apr. 30, 2017 – National Weather Service

... Winter Storm Warning remains in effect until 1 PM MDT this
afternoon...

* location... Crowley, Otero, Kiowa, bent, Prowers and Baca
counties.

* Cause and timing... snow will continue until midday.

* Storm total snow accumulation... 8 to 16 inches.

* Wind... north at 20 to 40 mph.

* Impact... snow and blowing snow will create hazardous travel
conditions. In addition, heavy wet snow may produce tree and
power line damage. A prolonged period of below freezing
temperatures is likely, which may cause damage to cold
sensitive plants and outdoor irrigation systems.

Precautionary/preparedness actions...

A Winter Storm Warning for heavy snow means severe winter weather
conditions are expected or occurring. Significant amounts of
snow are forecast that will make travel dangerous. Only travel in
an emergency. If you must travel, keep an extra flashlight, food,
and water in your vehicle in case of an emergency.